createdAt,value
2023-08-28T00:01:14.262Z,77.10
2023-08-28T00:03:42.824Z,77.80
2023-08-28T00:06:09.814Z,77.40
2023-08-28T00:08:36.816Z,77.50
2023-08-28T00:11:03.957Z,77.50
2023-08-28T00:13:30.937Z,77.60
2023-08-28T00:15:57.919Z,77.70
2023-08-28T00:18:24.810Z,77.80
2023-08-28T00:20:51.804Z,77.90
2023-08-28T00:23:18.886Z,78.00
2023-08-28T00:25:45.915Z,78.00
2023-08-28T00:28:13.134Z,78.20
2023-08-28T00:30:40.061Z,78.70
2023-08-28T00:33:07.079Z,78.20
2023-08-28T00:35:34.048Z,78.20
2023-08-28T00:38:01.128Z,78.30
2023-08-28T00:40:27.981Z,78.30
2023-08-28T00:42:54.894Z,78.30
2023-08-28T00:45:22.002Z,78.40
2023-08-28T00:47:50.107Z,78.50
2023-08-28T00:50:17.204Z,78.50
2023-08-28T00:52:44.155Z,78.60
2023-08-28T00:55:11.069Z,78.70
2023-08-28T00:57:38.006Z,78.70
2023-08-28T01:00:07.029Z,78.90
2023-08-28T01:02:33.999Z,79.00
2023-08-28T01:05:01.266Z,79.60
2023-08-28T01:07:34.861Z,79.20
2023-08-28T01:10:14.806Z,79.40
2023-08-28T01:12:52.612Z,79.50
2023-08-28T01:15:23.744Z,79.60
2023-08-28T01:17:55.622Z,79.70
2023-08-28T01:20:23.051Z,79.80
2023-08-28T01:22:59.182Z,79.90
2023-08-28T01:25:26.574Z,80.00
2023-08-28T01:27:53.975Z,80.10
2023-08-28T01:30:22.258Z,80.20
2023-08-28T01:32:49.325Z,80.20
2023-08-28T01:35:23.124Z,80.20
2023-08-28T01:38:08.790Z,80.30
2023-08-28T01:40:44.933Z,80.30
2023-08-28T01:43:13.163Z,80.20
2023-08-28T01:45:40.416Z,80.20
2023-08-28T01:48:07.689Z,80.30
2023-08-28T01:50:34.672Z,80.30
2023-08-28T01:53:01.774Z,80.30
2023-08-28T01:55:47.337Z,80.50
2023-08-28T01:58:14.295Z,80.60
2023-08-28T02:00:41.482Z,80.50
2023-08-28T02:03:10.373Z,80.60
2023-08-28T02:05:37.710Z,80.70
2023-08-28T02:08:06.019Z,80.70
2023-08-28T02:10:32.936Z,80.80
2023-08-28T02:13:00.308Z,81.00
2023-08-28T02:15:28.075Z,81.00
2023-08-28T02:17:55.092Z,81.10
2023-08-28T02:20:22.032Z,81.10
2023-08-28T02:22:48.938Z,81.20
2023-08-28T02:25:19.414Z,81.30
2023-08-28T02:27:46.349Z,81.40
2023-08-28T02:30:13.485Z,81.60
2023-08-28T02:32:40.559Z,81.60
2023-08-28T02:35:07.770Z,81.70
2023-08-28T02:37:34.801Z,81.70
2023-08-28T02:40:01.759Z,81.80
2023-08-28T02:42:28.642Z,81.80
2023-08-28T02:44:55.549Z,81.90
2023-08-28T02:47:22.568Z,81.90
2023-08-28T02:49:49.534Z,82.00
2023-08-28T02:52:16.556Z,82.00
2023-08-28T02:54:43.454Z,82.10
2023-08-28T02:57:10.499Z,82.10
2023-08-28T02:59:37.389Z,82.20
2023-08-28T03:02:04.519Z,82.20
2023-08-28T03:04:31.416Z,82.30
2023-08-28T03:06:58.345Z,82.40
2023-08-28T03:09:25.262Z,82.50
2023-08-28T03:11:52.158Z,82.50
2023-08-28T03:14:19.050Z,82.60
2023-08-28T03:16:46.004Z,82.70
2023-08-28T03:19:12.976Z,82.70
2023-08-28T03:21:41.251Z,82.70
2023-08-28T03:24:08.456Z,82.80
2023-08-28T03:26:35.403Z,82.80
2023-08-28T03:29:02.443Z,82.90
2023-08-28T03:31:30.047Z,83.00
2023-08-28T03:33:57.253Z,83.10
2023-08-28T03:36:24.213Z,83.60
2023-08-28T03:38:51.290Z,83.20
2023-08-28T03:41:18.266Z,83.20
2023-08-28T03:43:45.189Z,83.30
2023-08-28T03:46:12.191Z,83.40
2023-08-28T03:48:39.140Z,83.50
2023-08-28T03:51:06.165Z,83.40
2023-08-28T03:53:33.079Z,83.50
2023-08-28T03:56:00.117Z,83.50
2023-08-28T03:58:27.345Z,83.60
2023-08-28T04:00:56.950Z,83.60
2023-08-28T04:03:23.929Z,83.70
2023-08-28T04:05:50.831Z,83.70
2023-08-28T04:08:17.785Z,83.70
2023-08-28T04:10:44.715Z,83.70
2023-08-28T04:13:11.675Z,83.70
2023-08-28T04:15:42.176Z,83.80
2023-08-28T04:18:09.445Z,83.90
2023-08-28T04:20:36.467Z,83.90
2023-08-28T04:23:03.677Z,84.00
2023-08-28T04:25:30.941Z,84.00
2023-08-28T04:27:57.863Z,84.10
2023-08-28T04:30:24.818Z,84.10
2023-08-28T04:32:51.771Z,84.20
2023-08-28T04:35:18.743Z,84.20
2023-08-28T04:37:45.713Z,84.20
2023-08-28T04:40:12.630Z,84.30
2023-08-28T04:42:39.512Z,84.30
2023-08-28T04:45:06.856Z,84.40
2023-08-28T04:47:33.761Z,84.40
2023-08-28T04:50:00.683Z,84.50
2023-08-28T04:52:27.644Z,84.50
2023-08-28T04:54:54.504Z,84.50
2023-08-28T04:57:21.628Z,84.60
2023-08-28T04:59:48.542Z,84.60
2023-08-28T05:02:15.459Z,84.70
2023-08-28T05:04:42.403Z,84.80
2023-08-28T05:07:09.404Z,84.80
2023-08-28T05:09:36.448Z,84.80
2023-08-28T05:12:03.430Z,84.90
2023-08-28T05:14:30.531Z,85.00
2023-08-28T05:16:57.664Z,85.00
2023-08-28T05:19:24.576Z,85.00
2023-08-28T05:21:51.507Z,85.00
2023-08-28T05:24:18.399Z,85.00
2023-08-28T05:26:45.360Z,85.00
2023-08-28T05:29:12.412Z,85.10
2023-08-28T05:31:39.388Z,85.10
2023-08-28T05:34:06.459Z,85.10
2023-08-28T05:36:33.473Z,85.20
2023-08-28T05:39:00.323Z,85.20
2023-08-28T05:41:27.272Z,85.20
2023-08-28T05:43:54.233Z,85.30
2023-08-28T05:46:21.295Z,85.30
2023-08-28T05:48:48.311Z,85.30
2023-08-28T05:51:15.249Z,85.30
2023-08-28T05:53:44.433Z,85.30
2023-08-28T05:56:12.885Z,85.30
2023-08-28T05:58:39.885Z,85.30
2023-08-28T06:01:06.875Z,85.30
2023-08-28T06:03:33.930Z,85.20
2023-08-28T06:06:01.079Z,85.20
2023-08-28T06:08:28.129Z,85.10
2023-08-28T06:10:55.052Z,85.00
2023-08-28T06:13:21.937Z,85.00
2023-08-28T06:15:49.618Z,84.90
2023-08-28T06:18:16.611Z,84.80
2023-08-28T06:20:43.533Z,84.70
2023-08-28T06:23:10.432Z,85.10
2023-08-28T06:25:37.374Z,84.50
2023-08-28T06:28:04.616Z,84.40
2023-08-28T06:30:31.543Z,84.40
2023-08-28T06:32:59.560Z,84.40
2023-08-28T06:35:26.683Z,84.50
2023-08-28T06:37:53.617Z,84.40
2023-08-28T06:40:20.562Z,84.40
2023-08-28T06:42:47.495Z,84.50
2023-08-28T06:45:14.412Z,84.50
2023-08-28T06:47:41.394Z,84.60
2023-08-28T06:50:10.101Z,84.50
2023-08-28T06:52:37.531Z,84.40
2023-08-28T06:55:04.695Z,84.30
2023-08-28T06:57:31.698Z,84.10
2023-08-28T06:59:58.686Z,83.90
2023-08-28T07:02:25.638Z,83.60
2023-08-28T07:04:52.486Z,83.50
2023-08-28T07:07:19.542Z,83.80
2023-08-28T07:09:46.521Z,83.10
2023-08-28T07:12:13.395Z,83.00
2023-08-28T07:14:40.309Z,82.80
2023-08-28T07:17:07.557Z,82.60
2023-08-28T07:19:34.549Z,82.50
2023-08-28T07:22:01.989Z,82.20
2023-08-28T07:24:29.123Z,82.00
2023-08-28T07:26:56.348Z,81.90
2023-08-28T07:29:23.292Z,81.80
2023-08-28T07:31:50.365Z,81.60
2023-08-28T07:34:17.256Z,81.40
2023-08-28T07:36:45.486Z,81.40
2023-08-28T07:39:12.518Z,81.40
2023-08-28T07:41:39.436Z,81.30
2023-08-28T07:44:06.953Z,81.30
2023-08-28T07:46:33.876Z,81.30
2023-08-28T07:49:00.798Z,81.20
2023-08-28T07:51:27.785Z,81.60
2023-08-28T07:53:56.718Z,81.00
2023-08-28T07:56:23.866Z,80.90
2023-08-28T07:58:51.249Z,80.70
2023-08-28T08:01:18.288Z,80.60
2023-08-28T08:03:45.336Z,80.40
2023-08-28T08:06:12.237Z,80.20
2023-08-28T08:08:39.333Z,80.00
2023-08-28T08:11:06.280Z,79.70
2023-08-28T08:13:33.506Z,79.40
2023-08-28T08:16:00.471Z,79.10
2023-08-28T08:18:27.379Z,78.90
2023-08-28T08:20:54.408Z,78.80
2023-08-28T08:23:22.904Z,78.60
2023-08-28T08:25:50.210Z,78.50
2023-08-28T08:28:17.089Z,78.30
2023-08-28T08:30:44.088Z,78.00
2023-08-28T08:33:11.643Z,77.80
2023-08-28T08:35:38.715Z,77.60
2023-08-28T08:38:05.889Z,77.40
2023-08-28T08:40:32.833Z,77.10
2023-08-28T08:42:59.922Z,76.90
2023-08-28T08:45:30.154Z,76.70
2023-08-28T08:48:01.036Z,76.60
2023-08-28T08:50:29.206Z,76.30
2023-08-28T08:53:05.461Z,76.30
2023-08-28T08:55:43.004Z,76.10
2023-08-28T08:58:12.004Z,75.80
2023-08-28T09:00:40.103Z,75.60
2023-08-28T09:03:07.656Z,75.30
2023-08-28T09:05:34.972Z,75.00
2023-08-28T09:08:03.093Z,74.90
2023-08-28T09:10:30.212Z,74.70
2023-08-28T09:12:57.159Z,74.60
2023-08-28T09:15:27.457Z,74.40
2023-08-28T09:17:54.477Z,74.10
2023-08-28T09:20:23.033Z,74.00
2023-08-28T09:22:54.999Z,73.80
2023-08-28T09:25:23.335Z,73.50
2023-08-28T09:27:51.412Z,73.30
2023-08-28T09:30:32.035Z,72.90
2023-08-28T09:33:00.623Z,72.50
2023-08-28T09:35:28.620Z,72.50
2023-08-28T09:37:59.892Z,72.40
2023-08-28T09:40:32.327Z,72.30
2023-08-28T09:42:59.642Z,72.00
2023-08-28T09:45:33.719Z,71.90
2023-08-28T09:48:03.829Z,71.60
2023-08-28T09:50:31.240Z,71.30
2023-08-28T09:53:11.093Z,70.90
2023-08-28T09:55:41.463Z,70.70
2023-08-28T09:58:12.267Z,70.50
2023-08-28T10:00:43.350Z,70.20
2023-08-28T10:03:11.778Z,70.10
2023-08-28T10:05:40.018Z,70.00
2023-08-28T10:08:08.456Z,70.00
2023-08-28T10:10:36.122Z,70.00
2023-08-28T10:13:05.387Z,69.80
2023-08-28T10:15:40.102Z,69.60
2023-08-28T10:18:09.725Z,69.50
2023-08-28T10:20:36.870Z,69.40
2023-08-28T10:23:04.678Z,69.10
2023-08-28T10:25:32.223Z,69.10
2023-08-28T10:27:59.672Z,69.10
2023-08-28T10:30:27.732Z,69.10
2023-08-28T10:32:57.678Z,68.90
2023-08-28T10:35:24.614Z,68.90
2023-08-28T10:37:52.201Z,68.70
2023-08-28T10:40:19.432Z,68.50
2023-08-28T10:42:46.265Z,68.20
2023-08-28T10:45:13.090Z,68.00
2023-08-28T10:47:40.219Z,67.90
2023-08-28T10:50:07.924Z,67.70
2023-08-28T10:52:34.805Z,67.60
2023-08-28T10:55:11.238Z,67.40
2023-08-28T10:57:41.370Z,67.10
2023-08-28T11:00:16.262Z,67.00
2023-08-28T11:03:09.232Z,66.70
2023-08-28T11:05:38.236Z,66.50
2023-08-28T11:08:06.276Z,66.40
2023-08-28T11:10:33.306Z,66.30
2023-08-28T11:13:07.447Z,66.20
2023-08-28T11:15:41.887Z,66.00
2023-08-28T11:18:30.677Z,65.90
2023-08-28T11:20:57.613Z,65.70
2023-08-28T11:23:35.428Z,65.70
2023-08-28T11:26:22.614Z,65.50
2023-08-28T11:28:50.464Z,65.40
2023-08-28T11:31:17.577Z,65.30
2023-08-28T11:33:46.888Z,65.20
2023-08-28T11:36:20.022Z,65.00
2023-08-28T11:38:47.954Z,64.80
2023-08-28T11:41:14.972Z,64.80
2023-08-28T11:43:43.067Z,64.80
2023-08-28T11:46:13.318Z,64.70
2023-08-28T11:48:49.884Z,64.50
2023-08-28T11:51:17.327Z,64.20
2023-08-28T11:53:44.618Z,64.80
2023-08-28T11:56:13.171Z,64.30
2023-08-28T11:58:41.799Z,64.30
2023-08-28T12:01:15.592Z,64.30
2023-08-28T12:03:43.802Z,64.30
2023-08-28T12:06:13.354Z,64.30
2023-08-28T12:08:41.597Z,64.20
2023-08-28T12:11:10.235Z,64.20
2023-08-28T12:13:42.841Z,64.70
2023-08-28T12:16:16.791Z,64.10
2023-08-28T12:18:58.214Z,64.20
2023-08-28T12:21:40.557Z,64.10
2023-08-28T12:28:48.447Z,63.80
2023-08-28T12:35:15.049Z,63.90
2023-08-28T12:37:52.359Z,64.00
2023-08-28T12:40:21.040Z,63.90
2023-08-28T12:42:48.333Z,64.30
2023-08-28T12:45:26.258Z,63.60
2023-08-28T12:47:59.345Z,63.30
2023-08-28T12:50:56.297Z,63.10
2023-08-28T12:53:24.375Z,62.90
2023-08-28T12:55:52.232Z,62.80
2023-08-28T12:58:21.339Z,62.60
2023-08-28T13:00:51.333Z,62.60
2023-08-28T13:03:18.711Z,62.80
2023-08-28T13:05:49.723Z,62.70
2023-08-28T13:08:19.947Z,62.50
2023-08-28T13:10:48.522Z,62.40
2023-08-28T13:13:21.255Z,62.30
2023-08-28T13:15:48.825Z,62.20
2023-08-28T13:18:44.480Z,62.10
2023-08-28T13:21:34.549Z,61.90
2023-08-28T13:24:01.976Z,61.90
2023-08-28T13:26:31.433Z,62.00
2023-08-28T13:28:59.849Z,62.00
2023-08-28T13:31:30.923Z,62.00
2023-08-28T13:34:01.576Z,62.00
2023-08-28T13:36:57.215Z,62.10
2023-08-28T13:42:17.555Z,62.10
2023-08-28T13:42:46.989Z,62.20
2023-08-28T13:44:47.264Z,62.00
2023-08-28T13:47:30.548Z,62.00
2023-08-28T13:50:23.010Z,61.90
2023-08-28T13:52:51.191Z,62.00
2023-08-28T13:55:21.386Z,61.90
2023-08-28T13:58:38.378Z,61.60
2023-08-28T14:05:02.334Z,61.40
2023-08-28T14:08:32.822Z,61.30
2023-08-28T14:14:26.592Z,60.90
2023-08-28T14:20:01.032Z,60.50
2023-08-28T14:23:38.606Z,60.50
2023-08-28T14:26:16.723Z,60.30
2023-08-28T14:29:13.686Z,60.30
2023-08-28T14:32:41.270Z,60.20
2023-08-28T14:35:08.682Z,59.90
2023-08-28T14:38:11.437Z,59.80
2023-08-28T14:40:47.515Z,59.40
2023-08-28T14:43:57.096Z,59.30
2023-08-28T14:46:42.532Z,59.20
2023-08-28T14:49:24.536Z,59.30
2023-08-28T15:06:16.880Z,58.50
2023-08-28T15:08:44.099Z,58.60
2023-08-28T15:22:57.344Z,57.90
2023-08-28T15:25:36.320Z,58.00
2023-08-28T15:36:16.940Z,58.00
2023-08-28T15:38:54.895Z,58.00
2023-08-28T15:41:22.513Z,58.10
2023-08-28T15:43:52.990Z,58.00
2023-08-28T15:46:25.109Z,57.90
2023-08-28T15:48:53.427Z,57.80
2023-08-28T15:51:20.532Z,57.70
2023-08-28T15:53:48.273Z,57.70
2023-08-28T15:56:16.310Z,57.70
2023-08-28T15:58:46.616Z,57.60
2023-08-28T16:01:18.055Z,57.50
2023-08-28T16:03:51.538Z,57.50
2023-08-28T16:06:18.375Z,57.30
2023-08-28T16:08:45.554Z,57.40
2023-08-28T16:11:12.534Z,57.40
2023-08-28T16:13:39.741Z,57.40
2023-08-28T16:16:07.118Z,57.50
2023-08-28T16:18:34.354Z,57.60
2023-08-28T16:21:03.356Z,57.60
2023-08-28T16:27:11.267Z,57.50
2023-08-28T16:29:38.311Z,57.70
2023-08-28T16:32:05.671Z,57.60
2023-08-28T16:34:32.596Z,57.70
2023-08-28T16:36:59.618Z,57.70
2023-08-28T16:39:26.548Z,57.70
2023-08-28T16:41:54.173Z,57.70
2023-08-28T16:44:21.226Z,57.70
2023-08-28T16:46:57.079Z,57.70
2023-08-28T16:49:23.960Z,57.60
2023-08-28T16:51:50.856Z,57.60
2023-08-28T16:54:17.709Z,57.70
2023-08-28T16:56:44.846Z,57.70
2023-08-28T16:59:11.993Z,57.70
2023-08-28T17:01:39.154Z,57.60
2023-08-28T17:04:06.285Z,57.60
2023-08-28T17:06:36.498Z,57.50
2023-08-28T17:09:05.880Z,57.50
2023-08-28T17:11:33.144Z,57.60
2023-08-28T17:14:00.101Z,57.60
2023-08-28T17:16:27.168Z,57.60
2023-08-28T17:18:54.200Z,57.60
2023-08-28T17:21:21.114Z,57.70
2023-08-28T17:23:48.136Z,57.70
2023-08-28T17:26:15.078Z,57.70
2023-08-28T17:28:42.053Z,57.70
2023-08-28T17:31:10.174Z,57.80
2023-08-28T17:33:37.171Z,57.80
2023-08-28T17:36:04.331Z,57.80
2023-08-28T17:38:31.317Z,57.80
2023-08-28T17:40:58.311Z,57.90
2023-08-28T17:43:25.317Z,57.90
2023-08-28T17:45:52.320Z,57.90
2023-08-28T17:48:19.207Z,58.00
2023-08-28T17:50:46.124Z,58.00
2023-08-28T17:53:13.187Z,57.90
2023-08-28T17:55:40.123Z,57.80
2023-08-28T17:58:07.205Z,57.80
2023-08-28T18:00:34.144Z,57.70
2023-08-28T18:03:06.403Z,57.70
2023-08-28T18:05:37.899Z,57.70
2023-08-28T18:08:06.862Z,57.70
2023-08-28T18:10:33.804Z,57.70
2023-08-28T18:13:00.814Z,57.70
2023-08-28T18:15:27.780Z,57.70
2023-08-28T18:17:54.811Z,57.80
2023-08-28T18:20:21.832Z,57.90
2023-08-28T18:22:48.830Z,58.00
2023-08-28T18:25:16.004Z,58.00
2023-08-28T18:28:00.094Z,58.10
2023-08-28T18:30:30.661Z,58.20
2023-08-28T18:32:57.650Z,58.30
2023-08-28T18:35:24.692Z,58.40
2023-08-28T18:37:51.664Z,58.40
2023-08-28T18:40:18.593Z,58.40
2023-08-28T18:42:45.560Z,58.50
2023-08-28T18:45:12.500Z,58.60
2023-08-28T18:47:39.501Z,58.60
2023-08-28T18:50:06.829Z,58.70
2023-08-28T18:52:33.813Z,58.80
2023-08-28T18:55:00.693Z,58.80
2023-08-28T18:57:27.695Z,58.90
2023-08-28T18:59:54.563Z,58.90
2023-08-28T19:02:21.580Z,59.00
2023-08-28T19:04:48.544Z,59.20
2023-08-28T19:07:16.473Z,59.20
2023-08-28T19:09:45.466Z,59.30
2023-08-28T19:12:12.394Z,59.30
2023-08-28T19:14:39.380Z,59.30
2023-08-28T19:17:06.365Z,59.30
2023-08-28T19:19:33.306Z,59.40
2023-08-28T19:22:00.307Z,59.30
2023-08-28T19:24:27.383Z,59.40
2023-08-28T19:26:54.776Z,59.50
2023-08-28T19:29:21.726Z,59.70
2023-08-28T19:31:48.640Z,59.80
2023-08-28T19:34:15.569Z,60.00
2023-08-28T19:36:42.540Z,60.80
2023-08-28T19:39:10.019Z,60.50
2023-08-28T19:41:37.000Z,60.90
2023-08-28T19:44:04.513Z,61.20
2023-08-28T19:46:31.523Z,61.50
2023-08-28T19:48:58.519Z,61.90
2023-08-28T19:51:28.496Z,62.20
2023-08-28T19:53:55.711Z,62.30
2023-08-28T19:56:22.693Z,62.40
2023-08-28T19:58:49.681Z,62.60
2023-08-28T20:01:16.634Z,62.70
2023-08-28T20:03:43.643Z,63.00
2023-08-28T20:06:11.403Z,63.00
2023-08-28T20:08:38.399Z,63.00
2023-08-28T20:11:06.442Z,63.00
2023-08-28T20:13:33.791Z,63.10
2023-08-28T20:16:00.874Z,63.20
2023-08-28T20:18:27.932Z,63.40
2023-08-28T20:20:54.878Z,63.70
2023-08-28T20:23:22.251Z,63.90
2023-08-28T20:25:49.888Z,64.30
2023-08-28T20:28:16.886Z,64.50
2023-08-28T20:30:43.872Z,64.80
2023-08-28T20:33:10.971Z,65.10
2023-08-28T20:35:37.913Z,65.40
2023-08-28T20:38:06.172Z,65.80
2023-08-28T20:40:34.243Z,66.00
2023-08-28T20:43:02.249Z,66.30
2023-08-28T20:45:29.346Z,66.60
2023-08-28T20:47:56.649Z,66.90
2023-08-28T20:50:25.822Z,67.10
2023-08-28T20:52:53.028Z,67.40
2023-08-28T20:55:20.066Z,67.60
2023-08-28T20:57:46.997Z,67.90
2023-08-28T21:00:14.708Z,68.00
2023-08-28T21:02:41.729Z,68.30
2023-08-28T21:05:09.186Z,68.50
2023-08-28T21:07:36.289Z,68.70
2023-08-28T21:10:03.448Z,68.90
2023-08-28T21:12:30.471Z,69.10
2023-08-28T21:14:57.379Z,69.30
2023-08-28T21:17:24.416Z,69.50
2023-08-28T21:19:54.251Z,69.70
2023-08-28T21:22:21.621Z,69.90
2023-08-28T21:24:48.604Z,70.00
2023-08-28T21:27:18.258Z,70.20
2023-08-28T21:29:45.231Z,70.40
2023-08-28T21:32:12.203Z,70.50
2023-08-28T21:34:39.086Z,70.70
2023-08-28T21:37:06.113Z,70.80
2023-08-28T21:39:33.029Z,70.90
2023-08-28T21:42:00.092Z,71.00
2023-08-28T21:44:27.444Z,71.10
2023-08-28T21:46:54.464Z,71.30
2023-08-28T21:49:21.512Z,71.30
2023-08-28T21:51:48.393Z,71.40
2023-08-28T21:54:17.783Z,71.40
2023-08-28T21:56:52.451Z,71.50
2023-08-28T21:59:23.145Z,71.60
2023-08-28T22:01:50.333Z,71.60
2023-08-28T22:04:17.487Z,71.60
2023-08-28T22:06:44.598Z,71.60
2023-08-28T22:09:11.838Z,71.60
2023-08-28T22:11:38.901Z,71.70
2023-08-28T22:14:06.114Z,71.70
2023-08-28T22:16:35.446Z,71.70
2023-08-28T22:19:02.370Z,71.60
2023-08-28T22:21:29.350Z,71.70
2023-08-28T22:23:56.257Z,71.60
2023-08-28T22:26:23.311Z,71.70
2023-08-28T22:28:50.258Z,71.70
2023-08-28T22:31:17.220Z,71.70
2023-08-28T22:33:44.189Z,71.80
2023-08-28T22:36:11.149Z,71.80
2023-08-28T22:38:38.200Z,71.90
2023-08-28T22:41:05.929Z,71.90
2023-08-28T22:43:33.076Z,72.00
2023-08-28T22:46:00.035Z,72.00
2023-08-28T22:48:27.020Z,72.00
2023-08-28T22:50:53.998Z,72.10
2023-08-28T22:53:20.930Z,72.10
2023-08-28T22:55:48.451Z,72.10
2023-08-28T22:58:15.803Z,72.20
2023-08-28T23:00:42.852Z,72.30
2023-08-28T23:03:10.292Z,72.30
2023-08-28T23:05:44.476Z,72.40
2023-08-28T23:08:11.601Z,72.50
2023-08-28T23:10:38.557Z,72.50
2023-08-28T23:13:05.486Z,72.50
2023-08-28T23:15:35.375Z,72.60
2023-08-28T23:18:04.140Z,72.70
2023-08-28T23:20:31.676Z,72.80
2023-08-28T23:22:58.625Z,72.90
2023-08-28T23:25:26.963Z,73.00
2023-08-28T23:27:54.905Z,73.10
2023-08-28T23:30:23.031Z,73.10
2023-08-28T23:32:50.088Z,73.20
2023-08-28T23:35:17.160Z,73.30
2023-08-28T23:37:44.122Z,73.30
2023-08-28T23:40:15.068Z,73.40
2023-08-28T23:42:42.189Z,73.40
2023-08-28T23:45:09.412Z,73.40
2023-08-28T23:47:37.021Z,73.50
2023-08-28T23:50:04.162Z,73.50
2023-08-28T23:52:31.150Z,73.50
2023-08-28T23:54:58.106Z,73.60
2023-08-28T23:57:25.037Z,73.60
2023-08-28T23:59:52.086Z,73.70
